sensor_id;sensor_type;location;lat;lon;timestamp;pressure;altitude;pressure_sealevel;temperature;humidity
77979;BME280;67169;50.268;8.694;2023-09-19T00:02:20;99033.91;;;15.51;100.00
77979;BME280;67169;50.268;8.694;2023-09-19T00:04:48;99051.16;;;15.63;100.00
77979;BME280;67169;50.268;8.694;2023-09-19T00:07:15;99054.75;;;15.63;100.00
77979;BME280;67169;50.268;8.694;2023-09-19T00:09:42;99060.16;;;15.63;100.00
77979;BME280;67169;50.268;8.694;2023-09-19T00:12:09;99062.56;;;15.68;100.00
77979;BME280;67169;50.268;8.694;2023-09-19T00:14:38;99059.13;;;15.66;100.00
77979;BME280;67169;50.268;8.694;2023-09-19T00:17:05;99057.06;;;15.70;100.00
77979;BME280;67169;50.268;8.694;2023-09-19T00:19:33;99061.28;;;15.74;100.00
77979;BME280;67169;50.268;8.694;2023-09-19T00:22:01;99064.00;;;15.74;100.00
77979;BME280;67169;50.268;8.694;2023-09-19T00:24:28;99056.06;;;15.71;100.00
77979;BME280;67169;50.268;8.694;2023-09-19T00:26:54;99008.84;;;15.48;100.00
77979;BME280;67169;50.268;8.694;2023-09-19T00:29:21;99060.28;;;15.75;100.00
77979;BME280;67169;50.268;8.694;2023-09-19T00:31:48;99066.50;;;15.77;100.00
77979;BME280;67169;50.268;8.694;2023-09-19T00:34:15;99064.72;;;15.76;100.00
77979;BME280;67169;50.268;8.694;2023-09-19T00:36:42;99073.75;;;15.76;100.00
77979;BME280;67169;50.268;8.694;2023-09-19T00:39:10;99059.28;;;15.63;100.00
77979;BME280;67169;50.268;8.694;2023-09-19T00:41:37;99069.41;;;15.74;100.00
77979;BME280;67169;50.268;8.694;2023-09-19T00:44:04;99069.63;;;15.71;100.00
77979;BME280;67169;50.268;8.694;2023-09-19T00:46:31;99074.94;;;15.72;100.00
77979;BME280;67169;50.268;8.694;2023-09-19T00:48:58;99076.69;;;15.73;100.00
77979;BME280;67169;50.268;8.694;2023-09-19T00:51:25;99086.88;;;15.70;100.00
77979;BME280;67169;50.268;8.694;2023-09-19T00:53:53;99083.31;;;15.69;100.00
77979;BME280;67169;50.268;8.694;2023-09-19T00:56:22;99081.34;;;15.71;100.00
77979;BME280;67169;50.268;8.694;2023-09-19T00:58:48;99071.22;;;15.60;100.00
77979;BME280;67169;50.268;8.694;2023-09-19T01:01:15;99065.69;;;15.49;100.00
77979;BME280;67169;50.268;8.694;2023-09-19T01:03:42;99089.19;;;15.61;100.00
77979;BME280;67169;50.268;8.694;2023-09-19T01:06:10;99098.09;;;15.63;100.00
77979;BME280;67169;50.268;8.694;2023-09-19T01:08:37;99099.09;;;15.62;100.00
77979;BME280;67169;50.268;8.694;2023-09-19T01:11:10;99097.66;;;15.57;100.00
77979;BME280;67169;50.268;8.694;2023-09-19T01:13:48;99092.66;;;15.51;100.00
77979;BME280;67169;50.268;8.694;2023-09-19T01:16:22;99102.63;;;15.50;100.00
77979;BME280;67169;50.268;8.694;2023-09-19T01:19:04;99113.47;;;15.50;100.00
77979;BME280;67169;50.268;8.694;2023-09-19T01:21:42;99114.75;;;15.44;100.00
77979;BME280;67169;50.268;8.694;2023-09-19T01:24:30;99117.69;;;15.41;100.00
77979;BME280;67169;50.268;8.694;2023-09-19T01:27:23;99128.50;;;15.41;100.00
77979;BME280;67169;50.268;8.694;2023-09-19T01:30:01;99132.66;;;15.47;100.00
77979;BME280;67169;50.268;8.694;2023-09-19T01:32:29;99131.00;;;15.44;100.00
77979;BME280;67169;50.268;8.694;2023-09-19T01:34:57;99131.53;;;15.37;100.00
77979;BME280;67169;50.268;8.694;2023-09-19T01:37:30;99137.53;;;15.42;100.00
77979;BME280;67169;50.268;8.694;2023-09-19T01:40:02;99141.63;;;15.35;100.00
77979;BME280;67169;50.268;8.694;2023-09-19T01:42:44;99140.84;;;15.33;100.00
77979;BME280;67169;50.268;8.694;2023-09-19T01:45:18;99141.94;;;15.30;100.00
77979;BME280;67169;50.268;8.694;2023-09-19T01:47:50;99150.91;;;15.31;100.00
77979;BME280;67169;50.268;8.694;2023-09-19T01:50:21;99154.41;;;15.33;100.00
77979;BME280;67169;50.268;8.694;2023-09-19T01:52:56;99164.38;;;15.32;100.00
77979;BME280;67169;50.268;8.694;2023-09-19T01:55:28;99127.00;;;15.10;100.00
77979;BME280;67169;50.268;8.694;2023-09-19T01:58:01;99166.44;;;15.29;100.00
77979;BME280;67169;50.268;8.694;2023-09-19T02:00:34;99162.59;;;15.18;100.00
77979;BME280;67169;50.268;8.694;2023-09-19T02:03:03;99177.34;;;15.27;100.00
77979;BME280;67169;50.268;8.694;2023-09-19T02:05:29;99170.09;;;15.28;100.00
77979;BME280;67169;50.268;8.694;2023-09-19T02:07:58;99168.88;;;15.19;100.00
77979;BME280;67169;50.268;8.694;2023-09-19T02:10:26;99170.72;;;15.18;100.00
77979;BME280;67169;50.268;8.694;2023-09-19T02:12:52;99170.81;;;15.17;100.00
77979;BME280;67169;50.268;8.694;2023-09-19T02:15:19;99174.19;;;15.20;100.00
77979;BME280;67169;50.268;8.694;2023-09-19T02:17:48;99187.06;;;15.17;100.00
77979;BME280;67169;50.268;8.694;2023-09-19T02:20:15;99181.84;;;15.14;100.00
77979;BME280;67169;50.268;8.694;2023-09-19T02:22:43;99191.81;;;15.13;100.00
77979;BME280;67169;50.268;8.694;2023-09-19T02:25:10;99192.13;;;15.09;100.00
77979;BME280;67169;50.268;8.694;2023-09-19T02:27:39;99194.84;;;15.09;100.00
77979;BME280;67169;50.268;8.694;2023-09-19T02:30:06;99192.44;;;15.04;100.00
77979;BME280;67169;50.268;8.694;2023-09-19T02:32:33;99184.50;;;15.01;100.00
77979;BME280;67169;50.268;8.694;2023-09-19T02:35:06;99195.91;;;15.06;100.00
77979;BME280;67169;50.268;8.694;2023-09-19T02:37:36;99186.25;;;15.02;100.00
77979;BME280;67169;50.268;8.694;2023-09-19T02:40:03;99168.06;;;14.90;100.00
77979;BME280;67169;50.268;8.694;2023-09-19T02:42:44;99190.53;;;14.92;100.00
77979;BME280;67169;50.268;8.694;2023-09-19T02:45:15;99177.97;;;14.91;100.00
77979;BME280;67169;50.268;8.694;2023-09-19T02:47:42;99189.97;;;14.87;100.00
77979;BME280;67169;50.268;8.694;2023-09-19T02:50:11;99174.38;;;14.76;100.00
77979;BME280;67169;50.268;8.694;2023-09-19T02:52:38;99190.53;;;14.92;100.00
77979;BME280;67169;50.268;8.694;2023-09-19T02:55:05;99186.47;;;14.85;100.00
77979;BME280;67169;50.268;8.694;2023-09-19T02:57:34;99189.31;;;14.83;100.00
77979;BME280;67169;50.268;8.694;2023-09-19T03:00:06;99172.66;;;14.75;100.00
77979;BME280;67169;50.268;8.694;2023-09-19T03:02:35;99195.28;;;14.88;100.00
77979;BME280;67169;50.268;8.694;2023-09-19T03:05:02;99197.19;;;14.86;100.00
77979;BME280;67169;50.268;8.694;2023-09-19T03:07:30;99198.09;;;14.87;100.00
77979;BME280;67169;50.268;8.694;2023-09-19T03:09:56;99190.34;;;14.81;100.00
77979;BME280;67169;50.268;8.694;2023-09-19T03:12:23;99203.91;;;14.81;100.00
77979;BME280;67169;50.268;8.694;2023-09-19T03:14:50;99202.72;;;14.85;100.00
77979;BME280;67169;50.268;8.694;2023-09-19T03:17:17;99204.66;;;14.83;100.00
77979;BME280;67169;50.268;8.694;2023-09-19T03:19:45;99196.16;;;14.75;100.00
77979;BME280;67169;50.268;8.694;2023-09-19T03:22:12;99211.03;;;14.82;100.00
77979;BME280;67169;50.268;8.694;2023-09-19T03:24:40;99215.69;;;14.80;100.00
77979;BME280;67169;50.268;8.694;2023-09-19T03:27:09;99221.31;;;14.77;100.00
77979;BME280;67169;50.268;8.694;2023-09-19T03:29:35;99215.41;;;14.70;100.00
77979;BME280;67169;50.268;8.694;2023-09-19T03:32:02;99201.00;;;14.55;100.00
77979;BME280;67169;50.268;8.694;2023-09-19T03:34:30;99227.19;;;14.69;100.00
77979;BME280;67169;50.268;8.694;2023-09-19T03:36:56;99231.66;;;14.70;100.00
77979;BME280;67169;50.268;8.694;2023-09-19T03:39:23;99227.19;;;14.69;100.00
77979;BME280;67169;50.268;8.694;2023-09-19T03:41:51;99217.63;;;14.63;100.00
77979;BME280;67169;50.268;8.694;2023-09-19T03:44:18;99213.00;;;14.51;100.00
77979;BME280;67169;50.268;8.694;2023-09-19T03:46:44;99217.34;;;14.54;100.00
77979;BME280;67169;50.268;8.694;2023-09-19T03:49:11;99218.22;;;14.54;100.00
77979;BME280;67169;50.268;8.694;2023-09-19T03:51:37;99228.28;;;14.52;100.00
77979;BME280;67169;50.268;8.694;2023-09-19T03:54:06;99222.94;;;14.51;100.00
77979;BME280;67169;50.268;8.694;2023-09-19T03:56:34;99202.94;;;14.39;100.00
77979;BME280;67169;50.268;8.694;2023-09-19T03:59:02;99197.88;;;14.33;100.00
77979;BME280;67169;50.268;8.694;2023-09-19T04:01:29;99212.59;;;14.43;100.00
77979;BME280;67169;50.268;8.694;2023-09-19T04:03:57;99216.25;;;14.42;100.00
77979;BME280;67169;50.268;8.694;2023-09-19T04:06:33;99216.25;;;14.42;100.00
77979;BME280;67169;50.268;8.694;2023-09-19T04:09:00;99214.13;;;14.47;100.00
77979;BME280;67169;50.268;8.694;2023-09-19T04:11:26;99219.19;;;14.53;100.00
77979;BME280;67169;50.268;8.694;2023-09-19T04:13:53;99220.91;;;14.54;100.00
77979;BME280;67169;50.268;8.694;2023-09-19T04:16:21;99227.13;;;14.56;100.00
77979;BME280;67169;50.268;8.694;2023-09-19T04:18:48;99234.16;;;14.59;100.00
77979;BME280;67169;50.268;8.694;2023-09-19T04:21:14;99251.06;;;14.62;100.00
77979;BME280;67169;50.268;8.694;2023-09-19T04:23:42;99228.84;;;14.57;100.00
77979;BME280;67169;50.268;8.694;2023-09-19T04:26:09;99243.72;;;14.64;100.00
77979;BME280;67169;50.268;8.694;2023-09-19T04:28:35;99252.22;;;14.72;100.00
77979;BME280;67169;50.268;8.694;2023-09-19T04:31:03;99254.84;;;14.74;100.00
77979;BME280;67169;50.268;8.694;2023-09-19T04:33:32;99256.59;;;14.75;100.00
77979;BME280;67169;50.268;8.694;2023-09-19T04:36:00;99254.00;;;14.74;100.00
77979;BME280;67169;50.268;8.694;2023-09-19T04:38:28;99266.53;;;14.75;100.00
77979;BME280;67169;50.268;8.694;2023-09-19T04:40:56;99249.50;;;14.72;100.00
77979;BME280;67169;50.268;8.694;2023-09-19T04:43:23;99258.31;;;14.76;100.00
77979;BME280;67169;50.268;8.694;2023-09-19T04:45:50;99258.53;;;14.73;100.00
77979;BME280;67169;50.268;8.694;2023-09-19T04:48:20;99260.56;;;14.69;100.00
77979;BME280;67169;50.268;8.694;2023-09-19T04:50:49;99264.13;;;14.70;100.00
77979;BME280;67169;50.268;8.694;2023-09-19T04:53:16;99271.41;;;14.69;100.00
77979;BME280;67169;50.268;8.694;2023-09-19T04:55:49;99269.75;;;14.67;100.00
77979;BME280;67169;50.268;8.694;2023-09-19T04:58:16;99269.06;;;14.63;100.00
77979;BME280;67169;50.268;8.694;2023-09-19T05:00:43;99274.47;;;14.63;100.00
77979;BME280;67169;50.268;8.694;2023-09-19T05:03:10;99278.34;;;14.59;100.00
77979;BME280;67169;50.268;8.694;2023-09-19T05:05:36;99272.25;;;14.56;100.00
77979;BME280;67169;50.268;8.694;2023-09-19T05:08:05;99282.97;;;14.57;100.00
77979;BME280;67169;50.268;8.694;2023-09-19T05:10:32;99280.28;;;14.57;100.00
77979;BME280;67169;50.268;8.694;2023-09-19T05:13:00;99285.09;;;14.52;100.00
77979;BME280;67169;50.268;8.694;2023-09-19T05:15:27;99280.63;;;14.51;100.00
77979;BME280;67169;50.268;8.694;2023-09-19T05:17:54;99283.34;;;14.51;100.00
77979;BME280;67169;50.268;8.694;2023-09-19T05:20:21;99289.88;;;14.47;100.00
77979;BME280;67169;50.268;8.694;2023-09-19T05:22:59;99289.72;;;14.50;100.00
77979;BME280;67169;50.268;8.694;2023-09-19T05:25:29;99286.38;;;14.45;100.00
77979;BME280;67169;50.268;8.694;2023-09-19T05:27:57;99293.47;;;14.47;100.00
77979;BME280;67169;50.268;8.694;2023-09-19T05:30:25;99299.16;;;14.43;100.00
77979;BME280;67169;50.268;8.694;2023-09-19T05:32:52;99291.78;;;14.31;100.00
77979;BME280;67169;50.268;8.694;2023-09-19T05:35:19;99305.56;;;14.42;100.00
77979;BME280;67169;50.268;8.694;2023-09-19T05:37:46;99300.50;;;14.36;100.00
77979;BME280;67169;50.268;8.694;2023-09-19T05:40:14;99309.31;;;14.39;100.00
77979;BME280;67169;50.268;8.694;2023-09-19T05:42:42;99314.03;;;14.36;100.00
77979;BME280;67169;50.268;8.694;2023-09-19T05:45:09;99307.66;;;14.37;100.00
77979;BME280;67169;50.268;8.694;2023-09-19T05:47:38;99302.25;;;14.37;100.00
77979;BME280;67169;50.268;8.694;2023-09-19T05:50:06;99289.25;;;14.28;100.00
77979;BME280;67169;50.268;8.694;2023-09-19T05:52:34;99312.09;;;14.38;100.00
77979;BME280;67169;50.268;8.694;2023-09-19T05:55:02;99307.56;;;14.38;100.00
77979;BME280;67169;50.268;8.694;2023-09-19T05:57:30;99315.59;;;14.40;100.00
77979;BME280;67169;50.268;8.694;2023-09-19T05:59:59;99302.84;;;14.42;100.00
77979;BME280;67169;50.268;8.694;2023-09-19T06:02:25;99301.88;;;14.43;100.00
77979;BME280;67169;50.268;8.694;2023-09-19T06:04:55;99315.09;;;14.47;100.00
77979;BME280;67169;50.268;8.694;2023-09-19T06:07:21;99320.44;;;14.49;100.00
77979;BME280;67169;50.268;8.694;2023-09-19T06:09:48;99319.50;;;14.50;100.00
77979;BME280;67169;50.268;8.694;2023-09-19T06:12:15;99314.25;;;14.47;100.00
77979;BME280;67169;50.268;8.694;2023-09-19T06:14:43;99322.22;;;14.50;100.00
77979;BME280;67169;50.268;8.694;2023-09-19T06:17:11;99324.94;;;14.48;100.00
77979;BME280;67169;50.268;8.694;2023-09-19T06:19:37;99328.63;;;14.47;100.00
77979;BME280;67169;50.268;8.694;2023-09-19T06:22:04;99329.28;;;14.53;100.00
77979;BME280;67169;50.268;8.694;2023-09-19T06:24:31;99338.25;;;14.53;100.00
77979;BME280;67169;50.268;8.694;2023-09-19T06:26:58;99344.25;;;14.58;100.00
77979;BME280;67169;50.268;8.694;2023-09-19T06:29:26;99349.94;;;14.54;100.00
77979;BME280;67169;50.268;8.694;2023-09-19T06:31:53;99350.53;;;14.59;100.00
77979;BME280;67169;50.268;8.694;2023-09-19T06:34:20;99361.09;;;14.63;100.00
77979;BME280;67169;50.268;8.694;2023-09-19T06:36:47;99363.69;;;14.65;100.00
77979;BME280;67169;50.268;8.694;2023-09-19T06:39:14;99361.59;;;14.70;100.00
77979;BME280;67169;50.268;8.694;2023-09-19T06:41:41;99368.63;;;14.72;100.00
77979;BME280;67169;50.268;8.694;2023-09-19T06:44:08;99371.16;;;14.76;100.00
77979;BME280;67169;50.268;8.694;2023-09-19T06:46:35;99373.47;;;14.82;100.00
77979;BME280;67169;50.268;8.694;2023-09-19T06:49:04;99377.56;;;14.89;99.88
77979;BME280;67169;50.268;8.694;2023-09-19T06:51:33;99373.13;;;14.88;99.19
77979;BME280;67169;50.268;8.694;2023-09-19T06:54:01;99376.69;;;14.88;99.15
77979;BME280;67169;50.268;8.694;2023-09-19T06:56:30;99368.66;;;14.87;98.57
77979;BME280;67169;50.268;8.694;2023-09-19T06:58:57;99392.19;;;15.01;97.79
77979;BME280;67169;50.268;8.694;2023-09-19T07:01:23;99386.59;;;15.04;97.60
77979;BME280;67169;50.268;8.694;2023-09-19T07:03:50;99389.19;;;15.05;97.28
77979;BME280;67169;50.268;8.694;2023-09-19T07:06:18;99403.09;;;15.13;97.16
77979;BME280;67169;50.268;8.694;2023-09-19T07:08:46;99406.59;;;15.15;96.72
77979;BME280;67169;50.268;8.694;2023-09-19T07:11:14;99411.22;;;15.13;96.25
77979;BME280;67169;50.268;8.694;2023-09-19T07:13:40;99415.50;;;15.17;96.05
77979;BME280;67169;50.268;8.694;2023-09-19T07:16:07;99417.91;;;15.22;95.79
77979;BME280;67169;50.268;8.694;2023-09-19T07:18:36;99414.03;;;15.26;95.59
77979;BME280;67169;50.268;8.694;2023-09-19T07:21:03;99425.25;;;15.20;95.34
77979;BME280;67169;50.268;8.694;2023-09-19T07:23:31;99424.78;;;15.28;95.17
77979;BME280;67169;50.268;8.694;2023-09-19T07:26:01;99426.53;;;15.29;95.21
77979;BME280;67169;50.268;8.694;2023-09-19T07:28:30;99432.72;;;15.31;95.26
77979;BME280;67169;50.268;8.694;2023-09-19T07:30:57;99433.69;;;15.30;94.50
77979;BME280;67169;50.268;8.694;2023-09-19T07:33:28;99437.19;;;15.32;94.80
77979;BME280;67169;50.268;8.694;2023-09-19T07:35:55;99437.06;;;15.48;94.86
77979;BME280;67169;50.268;8.694;2023-09-19T07:38:21;99429.03;;;15.60;94.21
77979;BME280;67169;50.268;8.694;2023-09-19T07:40:48;99443.47;;;15.75;93.29
77979;BME280;67169;50.268;8.694;2023-09-19T07:43:16;99443.94;;;15.82;91.87
77979;BME280;67169;50.268;8.694;2023-09-19T07:45:43;99447.91;;;15.90;91.66
77979;BME280;67169;50.268;8.694;2023-09-19T07:48:10;99455.34;;;16.01;91.49
77979;BME280;67169;50.268;8.694;2023-09-19T07:50:40;99444.63;;;15.85;90.43
77979;BME280;67169;50.268;8.694;2023-09-19T07:53:08;99453.22;;;15.92;90.80
77979;BME280;67169;50.268;8.694;2023-09-19T07:55:35;99449.72;;;16.04;90.35
77979;BME280;67169;50.268;8.694;2023-09-19T07:58:03;99459.19;;;16.11;89.17
77979;BME280;67169;50.268;8.694;2023-09-19T08:00:31;99443.00;;;16.10;88.24
77979;BME280;67169;50.268;8.694;2023-09-19T08:03:00;99427.41;;;16.13;88.49
77979;BME280;67169;50.268;8.694;2023-09-19T08:05:27;99455.91;;;16.33;86.99
77979;BME280;67169;50.268;8.694;2023-09-19T08:07:54;99450.75;;;16.16;86.39
77979;BME280;67169;50.268;8.694;2023-09-19T08:10:21;99451.41;;;16.20;86.56
77979;BME280;67169;50.268;8.694;2023-09-19T08:12:50;99464.94;;;16.34;84.35
77979;BME280;67169;50.268;8.694;2023-09-19T08:15:21;99457.88;;;16.31;84.42
77979;BME280;67169;50.268;8.694;2023-09-19T08:17:49;99458.50;;;16.49;84.54
77979;BME280;67169;50.268;8.694;2023-09-19T08:20:16;99455.56;;;16.52;84.06
77979;BME280;67169;50.268;8.694;2023-09-19T08:22:47;99471.00;;;16.65;82.82
77979;BME280;67169;50.268;8.694;2023-09-19T08:25:15;99464.41;;;16.69;82.38
77979;BME280;67169;50.268;8.694;2023-09-19T08:27:43;99466.72;;;16.75;82.61
77979;BME280;67169;50.268;8.694;2023-09-19T08:30:13;99467.09;;;16.96;80.59
77979;BME280;67169;50.268;8.694;2023-09-19T08:32:41;99470.47;;;16.99;79.74
77979;BME280;67169;50.268;8.694;2023-09-19T08:35:10;99452.84;;;16.92;77.92
77979;BME280;67169;50.268;8.694;2023-09-19T08:37:37;99484.41;;;17.07;78.40
77979;BME280;67169;50.268;8.694;2023-09-19T08:40:05;99484.41;;;17.07;79.36
77979;BME280;67169;50.268;8.694;2023-09-19T08:42:47;99476.81;;;17.25;79.88
77979;BME280;67169;50.268;8.694;2023-09-19T08:45:14;99476.94;;;17.49;79.59
77979;BME280;67169;50.268;8.694;2023-09-19T08:47:46;99473.78;;;17.43;79.20
77979;BME280;67169;50.268;8.694;2023-09-19T08:50:19;99477.50;;;17.42;79.71
77979;BME280;67169;50.268;8.694;2023-09-19T08:52:54;99473.78;;;17.55;77.65
77979;BME280;67169;50.268;8.694;2023-09-19T08:55:27;99473.56;;;17.46;77.51
77979;BME280;67169;50.268;8.694;2023-09-19T08:57:59;99480.31;;;17.66;75.86
77979;BME280;67169;50.268;8.694;2023-09-19T09:00:27;99475.50;;;17.82;75.28
77979;BME280;67169;50.268;8.694;2023-09-19T09:02:55;99477.75;;;18.01;74.57
77979;BME280;67169;50.268;8.694;2023-09-19T09:05:25;99466.34;;;17.96;74.28
77979;BME280;67169;50.268;8.694;2023-09-19T09:07:53;99477.47;;;18.17;73.71
77979;BME280;67169;50.268;8.694;2023-09-19T09:10:22;99480.13;;;18.42;73.15
77979;BME280;67169;50.268;8.694;2023-09-19T09:12:48;99478.81;;;18.24;71.88
77979;BME280;67169;50.268;8.694;2023-09-19T09:15:18;99473.97;;;18.03;72.30
77979;BME280;67169;50.268;8.694;2023-09-19T09:17:48;99479.22;;;18.31;73.59
77979;BME280;67169;50.268;8.694;2023-09-19T09:20:16;99473.19;;;18.38;72.50
77979;BME280;67169;50.268;8.694;2023-09-19T09:22:52;99481.13;;;18.41;70.49
77979;BME280;67169;50.268;8.694;2023-09-19T09:25:20;99473.53;;;17.97;71.27
77979;BME280;67169;50.268;8.694;2023-09-19T09:27:59;99468.56;;;18.27;69.79
77979;BME280;67169;50.268;8.694;2023-09-19T09:30:33;99475.81;;;18.27;69.31
77979;BME280;67169;50.268;8.694;2023-09-19T09:33:09;99479.09;;;18.32;69.26
77979;BME280;67169;50.268;8.694;2023-09-19T09:35:37;99470.06;;;18.56;68.04
77979;BME280;67169;50.268;8.694;2023-09-19T09:38:08;99479.13;;;18.43;66.54
77979;BME280;67169;50.268;8.694;2023-09-19T09:40:48;99480.38;;;18.39;67.15
77979;BME280;67169;50.268;8.694;2023-09-19T09:43:30;99480.94;;;18.32;66.05
77979;BME280;67169;50.268;8.694;2023-09-19T09:46:14;99481.88;;;18.43;66.16
77979;BME280;67169;50.268;8.694;2023-09-19T09:48:59;99482.56;;;18.34;65.48
77979;BME280;67169;50.268;8.694;2023-09-19T09:51:45;99485.34;;;18.69;65.08
77979;BME280;67169;50.268;8.694;2023-09-19T09:54:16;99485.25;;;19.06;64.05
77979;BME280;67169;50.268;8.694;2023-09-19T09:56:55;99486.19;;;19.18;64.42
77979;BME280;67169;50.268;8.694;2023-09-19T09:59:45;99478.50;;;19.23;64.59
77979;BME280;67169;50.268;8.694;2023-09-19T10:02:16;99467.63;;;19.34;64.91
77979;BME280;67169;50.268;8.694;2023-09-19T10:04:49;99473.28;;;19.20;64.68
77979;BME280;67169;50.268;8.694;2023-09-19T10:07:29;99450.34;;;19.11;64.40
77979;BME280;67169;50.268;8.694;2023-09-19T10:10:03;99476.94;;;19.54;64.05
77979;BME280;67169;50.268;8.694;2023-09-19T10:12:43;99474.41;;;19.17;63.75
77979;BME280;67169;50.268;8.694;2023-09-19T10:15:11;99467.75;;;19.33;61.42
77979;BME280;67169;50.268;8.694;2023-09-19T10:17:42;99469.22;;;19.26;63.59
77979;BME280;67169;50.268;8.694;2023-09-19T10:20:12;99474.13;;;19.09;63.75
77979;BME280;67169;50.268;8.694;2023-09-19T10:22:59;99481.47;;;19.20;63.64
77979;BME280;67169;50.268;8.694;2023-09-19T10:25:28;99466.00;;;19.32;64.16
77979;BME280;67169;50.268;8.694;2023-09-19T10:27:57;99463.47;;;19.64;63.99
77979;BME280;67169;50.268;8.694;2023-09-19T10:30:27;99463.84;;;19.93;62.70
77979;BME280;67169;50.268;8.694;2023-09-19T10:33:00;99477.00;;;19.77;62.21
77979;BME280;67169;50.268;8.694;2023-09-19T10:35:27;99466.03;;;20.22;62.78
77979;BME280;67169;50.268;8.694;2023-09-19T10:37:54;99460.22;;;20.70;61.67
77979;BME280;67169;50.268;8.694;2023-09-19T10:40:24;99465.00;;;21.09;60.29
77979;BME280;67169;50.268;8.694;2023-09-19T10:43:00;99456.50;;;20.92;60.23
77979;BME280;67169;50.268;8.694;2023-09-19T10:45:28;99463.91;;;21.01;59.00
77979;BME280;67169;50.268;8.694;2023-09-19T10:47:57;99466.25;;;21.26;58.19
77979;BME280;67169;50.268;8.694;2023-09-19T10:50:23;99476.56;;;21.13;58.68
77979;BME280;67169;50.268;8.694;2023-09-19T10:52:53;99476.59;;;21.02;57.25
77979;BME280;67169;50.268;8.694;2023-09-19T10:55:27;99477.84;;;20.98;58.14
77979;BME280;67169;50.268;8.694;2023-09-19T10:57:56;99477.06;;;21.07;58.61
77979;BME280;67169;50.268;8.694;2023-09-19T11:00:50;99450.19;;;20.59;59.17
77979;BME280;67169;50.268;8.694;2023-09-19T11:03:18;99470.41;;;20.02;59.03
77979;BME280;67169;50.268;8.694;2023-09-19T11:06:04;99468.97;;;20.30;59.30
77979;BME280;67169;50.268;8.694;2023-09-19T11:08:56;99454.56;;;20.39;58.50
77979;BME280;67169;50.268;8.694;2023-09-19T11:11:40;99450.56;;;19.88;57.67
77979;BME280;67169;50.268;8.694;2023-09-19T11:14:40;99462.72;;;20.07;58.18
77979;BME280;67169;50.268;8.694;2023-09-19T11:17:32;99448.69;;;19.78;57.41
77979;BME280;67169;50.268;8.694;2023-09-19T11:20:18;99456.50;;;19.60;58.80
77979;BME280;67169;50.268;8.694;2023-09-19T11:23:17;99461.09;;;19.82;57.78
77979;BME280;67169;50.268;8.694;2023-09-19T11:25:48;99456.03;;;20.43;56.34
77979;BME280;67169;50.268;8.694;2023-09-19T11:28:31;99439.84;;;20.19;56.56
77979;BME280;67169;50.268;8.694;2023-09-19T11:31:42;99445.31;;;20.95;55.88
77979;BME280;67169;50.268;8.694;2023-09-19T11:34:42;99432.63;;;20.73;54.39
77979;BME280;67169;50.268;8.694;2023-09-19T11:40:13;99431.69;;;21.25;52.45
77979;BME280;67169;50.268;8.694;2023-09-19T11:42:43;99436.41;;;21.35;53.67
77979;BME280;67169;50.268;8.694;2023-09-19T11:48:24;99437.69;;;21.19;51.36
77979;BME280;67169;50.268;8.694;2023-09-19T11:50:52;99431.53;;;21.38;51.36
77979;BME280;67169;50.268;8.694;2023-09-19T11:53:20;99440.78;;;21.47;51.52
77979;BME280;67169;50.268;8.694;2023-09-19T11:55:47;99434.03;;;21.81;50.66
77979;BME280;67169;50.268;8.694;2023-09-19T11:58:15;99438.22;;;22.16;50.92
77979;BME280;67169;50.268;8.694;2023-09-19T12:00:43;99426.84;;;22.21;49.76
77979;BME280;67169;50.268;8.694;2023-09-19T12:03:12;99440.19;;;21.74;50.43
77979;BME280;67169;50.268;8.694;2023-09-19T12:05:41;99441.63;;;21.38;51.72
77979;BME280;67169;50.268;8.694;2023-09-19T12:08:08;99447.38;;;21.65;51.14
77979;BME280;67169;50.268;8.694;2023-09-19T12:10:45;99448.63;;;20.77;51.96
77979;BME280;67169;50.268;8.694;2023-09-19T12:13:16;99426.41;;;20.71;52.17
77979;BME280;67169;50.268;8.694;2023-09-19T12:15:41;99440.94;;;20.71;52.71
77979;BME280;67169;50.268;8.694;2023-09-19T12:18:10;99447.94;;;20.64;53.45
77979;BME280;67169;50.268;8.694;2023-09-19T12:20:53;99425.72;;;20.90;53.05
77979;BME280;67169;50.268;8.694;2023-09-19T12:23:20;99436.09;;;21.59;51.69
77979;BME280;67169;50.268;8.694;2023-09-19T12:25:47;99422.31;;;22.10;51.22
77979;BME280;67169;50.268;8.694;2023-09-19T12:28:17;99412.50;;;22.08;50.79
77979;BME280;67169;50.268;8.694;2023-09-19T12:30:44;99419.38;;;22.52;50.39
77979;BME280;67169;50.268;8.694;2023-09-19T12:33:15;99423.66;;;22.25;49.80
77979;BME280;67169;50.268;8.694;2023-09-19T12:35:44;99422.66;;;22.36;50.20
77979;BME280;67169;50.268;8.694;2023-09-19T12:38:22;99422.81;;;22.25;49.65
77979;BME280;67169;50.268;8.694;2023-09-19T12:40:50;99415.72;;;22.22;49.83
77979;BME280;67169;50.268;8.694;2023-09-19T12:43:17;99409.72;;;23.06;48.86
77979;BME280;67169;50.268;8.694;2023-09-19T12:45:44;99401.06;;;23.58;48.38
77979;BME280;67169;50.268;8.694;2023-09-19T12:48:21;99404.91;;;23.37;47.34
77979;BME280;67169;50.268;8.694;2023-09-19T12:51:04;99406.03;;;23.44;48.42
77979;BME280;67169;50.268;8.694;2023-09-19T12:53:34;99394.09;;;23.73;46.79
77979;BME280;67169;50.268;8.694;2023-09-19T12:56:05;99407.44;;;23.49;47.16
77979;BME280;67169;50.268;8.694;2023-09-19T12:58:34;99395.16;;;22.96;47.09
77979;BME280;67169;50.268;8.694;2023-09-19T13:01:00;99412.16;;;22.90;47.14
77979;BME280;67169;50.268;8.694;2023-09-19T13:03:28;99411.44;;;22.88;47.32
77979;BME280;67169;50.268;8.694;2023-09-19T13:05:57;99399.31;;;22.81;47.01
77979;BME280;67169;50.268;8.694;2023-09-19T13:08:26;99394.16;;;22.97;47.57
77979;BME280;67169;50.268;8.694;2023-09-19T13:11:01;99407.69;;;23.18;47.27
77979;BME280;67169;50.268;8.694;2023-09-19T13:13:28;99405.59;;;23.39;46.56
77979;BME280;67169;50.268;8.694;2023-09-19T13:15:55;99411.78;;;23.51;46.91
77979;BME280;67169;50.268;8.694;2023-09-19T13:18:23;99396.28;;;23.60;46.42